Akron Fulton International Airport Akron US
ICAO: KAKR
IATA: AKC
Category: Medium
Scheduled Services: No

Elevation: 1067 ft
TransAlt. 18000 ft.

Airport Communications:
APP/DEP:118.6
ASOS:126.825
CTAF/UNICOM:123.075
CLEVELAND RDO:114.4

KAKR Zoom In..

If you have problems with the map follow the link
https://www.worldairports.se/pages/airport.php?
ICAO=KAKR

Runways:

(A) RW 01 length 2337 ft width 100 ft
LOC 110.90 / hdg 8

(B) RW 07 length 6336 ft width 150 ft
LOC 110.90 / hdg 69

(C) RW 19 length 2337 ft width 100 ft
LOC 110.90 / hdg 188

(D) RW 25 length 6336 ft width 150 ft
LOC 110.90 / hdg 249

Location; KAKR
Day. 22 / Time. 10.54 Zulu
* Altimeter: 30.16
* Temperature: 02° c. 35.6°f.
* Wind from: 200° Speed 07 kn.
Dewpoint: -02° c.
Visibility: 10 Statute Miles.
Clouds: Clear (automated report).

KAKR 221054Z AUTO 20007KT 10SM CLR 02/M02 A3016 RMK AO2 SLP222 T00171017


Wind From 200°
Speed 07 kn.

 
 
jpsmedia.com for Web Design worldairports.se 2018   terms of use